Time;durP1;ratioP1;P1;durP2;ratioP2;P2;SDS_P1;SDS_P2;PMS_P1;PMS_P2;Temp;Humidity;BMP_temperature;BMP_pressure;BME280_temperature;BME280_humidity;BME280_pressure;Samples;Min_cycle;Max_cycle;Signal;HPM_P1;HPM_P2
2022/06/21 00:01:03;;;;;;;3.40;1.80;;;15.00;65.60;;;;;;5083182;28;20027;-67
2022/06/21 00:03:30;;;;;;;2.78;1.60;;;14.90;65.60;;;;;;5088764;28;20024;-68
2022/06/21 00:05:56;;;;;;;3.38;1.50;;;14.90;65.80;;;;;;5085472;28;20020;-67
2022/06/21 00:08:31;;;;;;;2.85;1.50;;;14.80;65.90;;;;;;5088744;28;20101;-67
2022/06/21 00:10:58;;;;;;;2.25;1.42;;;14.80;65.80;;;;;;5090692;28;20107;-66
2022/06/21 00:13:31;;;;;;;4.97;1.58;;;14.80;65.90;;;;;;5088483;28;20032;-67
2022/06/21 00:16:01;;;;;;;;;;;14.70;65.90;;;;;;5088435;28;20389;-67
2022/06/21 00:18:28;;;;;;;3.22;1.45;;;14.70;65.90;;;;;;5093564;28;19908;-67
2022/06/21 00:20:54;;;;;;;3.33;1.40;;;14.70;66.00;;;;;;5085999;28;20031;-67
2022/06/21 00:23:24;;;;;;;4.15;1.50;;;14.60;66.20;;;;;;5088131;28;20027;-68
2022/06/21 00:25:50;;;;;;;3.65;1.55;;;14.50;67.00;;;;;;5090439;28;20107;-66
2022/06/21 00:28:17;;;;;;;3.28;1.40;;;14.50;67.00;;;;;;5088350;28;20161;-68
2022/06/21 00:30:43;;;;;;;2.60;1.40;;;14.40;66.60;;;;;;5093572;28;20024;-68
2022/06/21 00:33:12;;;;;;;3.38;1.70;;;14.40;66.70;;;;;;5091010;28;20430;-67
2022/06/21 00:35:41;;;;;;;3.08;1.50;;;14.40;66.80;;;;;;5089956;28;20024;-66
2022/06/21 00:38:16;;;;;;;3.00;1.70;;;14.40;66.80;;;;;;5100725;28;20375;-67
2022/06/21 00:40:42;;;;;;;3.40;1.65;;;14.40;66.70;;;;;;5081689;28;20360;-66
2022/06/21 00:43:31;;;;;;;4.35;1.70;;;14.40;66.50;;;;;;5087371;28;20039;-68
2022/06/21 00:45:56;;;;;;;4.05;1.90;;;14.40;66.50;;;;;;5075444;28;20105;-66
2022/06/21 00:48:24;;;;;;;3.67;1.90;;;14.40;66.60;;;;;;5081869;28;20070;-67
2022/06/21 00:51:25;;;;;;;3.60;1.70;;;14.40;66.60;;;;;;5087354;28;20032;-67
2022/06/21 00:53:57;;;;;;;2.58;1.70;;;14.40;66.70;;;;;;5089608;28;20032;-67
2022/06/21 00:56:28;;;;;;;2.85;1.52;;;14.40;66.70;;;;;;5089447;28;20024;-67
2022/06/21 00:58:54;;;;;;;3.67;1.70;;;14.30;66.60;;;;;;5084286;28;22195;-66
2022/06/21 01:01:26;;;;;;;3.10;1.58;;;14.30;67.50;;;;;;5078807;28;20032;-67
2022/06/21 01:04:01;;;;;;;3.38;1.67;;;14.30;67.10;;;;;;5082397;28;20147;-67
2022/06/21 01:06:36;;;;;;;3.95;1.60;;;14.30;67.20;;;;;;5089152;28;20028;-67
2022/06/21 01:09:14;;;;;;;2.40;1.42;;;14.30;67.20;;;;;;5077528;28;20034;-66
2022/06/21 01:11:51;;;;;;;4.22;1.58;;;14.30;67.20;;;;;;5087353;28;20466;-66
2022/06/21 01:14:20;;;;;;;4.13;1.70;;;14.30;67.30;;;;;;5087249;28;20027;-67
2022/06/21 01:16:46;;;;;;;3.25;1.67;;;14.30;67.30;;;;;;5093249;28;20024;-68
2022/06/21 01:19:24;;;;;;;2.72;1.42;;;14.30;67.30;;;;;;5080696;28;20089;-67
2022/06/21 01:21:53;;;;;;;5.15;1.70;;;14.20;67.40;;;;;;5084826;28;20024;-67
2022/06/21 01:24:34;;;;;;;4.75;1.67;;;14.20;67.50;;;;;;5082841;28;20035;-68
2022/06/21 01:27:03;;;;;;;2.55;1.30;;;14.20;67.50;;;;;;5089919;28;20058;-67
2022/06/21 01:29:31;;;;;;;3.13;1.55;;;14.20;67.60;;;;;;5088207;28;20039;-68
2022/06/21 01:32:01;;;;;;;3.83;1.67;;;14.20;67.70;;;;;;5091086;28;20099;-67
2022/06/21 01:34:28;;;;;;;1.98;1.40;;;14.10;67.90;;;;;;5089599;28;20021;-66
2022/06/21 01:37:18;;;;;;;3.70;1.48;;;14.20;68.00;;;;;;5103830;28;20031;-66
2022/06/21 01:40:10;;;;;;;4.80;1.55;;;14.20;68.10;;;;;;5084174;28;20032;-66
2022/06/21 01:42:46;;;;;;;3.40;1.27;;;14.10;68.10;;;;;;5080028;28;20016;-68
2022/06/21 01:45:18;;;;;;;2.55;1.45;;;14.10;68.00;;;;;;5089781;28;20040;-68
2022/06/21 01:47:51;;;;;;;3.75;1.30;;;14.20;68.10;;;;;;5088061;28;20477;-67
2022/06/21 01:50:20;;;;;;;3.92;1.20;;;14.10;68.00;;;;;;5098311;28;20111;-68
2022/06/21 01:52:47;;;;;;;2.63;1.48;;;14.10;68.10;;;;;;5093362;28;20024;-69
2022/06/21 01:55:28;;;;;;;2.72;1.50;;;14.10;68.20;;;;;;5091068;28;20103;-69
2022/06/21 01:57:56;;;;;;;2.30;1.25;;;14.10;68.20;;;;;;5095947;28;20090;-67
2022/06/21 02:00:21;;;;;;;5.03;1.65;;;14.10;68.20;;;;;;5090316;28;20119;-67
2022/06/21 02:02:53;;;;;;;2.15;1.30;;;14.00;68.30;;;;;;5104126;28;20164;-67
2022/06/21 02:05:25;;;;;;;4.68;1.63;;;14.10;68.40;;;;;;5090360;28;20107;-67
2022/06/21 02:07:56;;;;;;;2.92;1.42;;;14.10;68.50;;;;;;5092352;28;20020;-68
2022/06/21 02:10:30;;;;;;;2.53;1.30;;;14.10;68.50;;;;;;5087532;28;20052;-68
2022/06/21 02:13:06;;;;;;;3.30;1.40;;;14.10;68.50;;;;;;5104893;28;21230;-66
2022/06/21 02:15:39;;;;;;;2.97;1.60;;;14.10;68.40;;;;;;5108284;28;20066;-67
2022/06/21 02:18:10;;;;;;;3.53;1.50;;;14.10;68.50;;;;;;5084029;28;20029;-68
2022/06/21 02:20:56;;;;;;;3.40;1.60;;;14.20;68.50;;;;;;5089366;28;20401;-68
2022/06/21 02:23:22;;;;;;;4.82;1.60;;;14.20;68.50;;;;;;5099790;28;20036;-68
2022/06/21 02:25:50;;;;;;;2.75;1.45;;;14.10;68.40;;;;;;5092649;28;20065;-65
2022/06/21 02:28:18;;;;;;;3.42;1.63;;;14.10;68.30;;;;;;5097865;28;20558;-66
2022/06/21 02:30:45;;;;;;;2.63;1.40;;;14.00;68.40;;;;;;5102049;28;20501;-67
2022/06/21 02:33:18;;;;;;;1.40;1.30;;;14.00;68.50;;;;;;5094667;28;20019;-68
2022/06/21 02:36:00;;;;;;;4.00;1.67;;;14.00;68.60;;;;;;5089090;28;20042;-67
2022/06/21 02:38:38;;;;;;;3.15;1.40;;;13.90;68.60;;;;;;5085688;28;20024;-67
2022/06/21 02:41:11;;;;;;;3.00;1.30;;;13.90;68.60;;;;;;5093091;28;20077;-68
2022/06/21 02:43:47;;;;;;;2.80;1.40;;;13.90;68.80;;;;;;5094185;28;20043;-68
2022/06/21 02:46:19;;;;;;;3.38;1.50;;;13.80;68.80;;;;;;5093083;28;20024;-68
2022/06/21 02:49:17;;;;;;;2.33;1.40;;;13.80;68.80;;;;;;5088714;28;20410;-67
2022/06/21 02:51:48;;;;;;;1.98;1.25;;;13.80;68.90;;;;;;5086695;28;20040;-67
2022/06/21 02:54:25;;;;;;;2.25;1.20;;;13.70;68.80;;;;;;5088472;28;20620;-68
2022/06/21 02:57:03;;;;;;;2.03;1.40;;;13.70;68.80;;;;;;5091563;28;20016;-68
2022/06/21 02:59:34;;;;;;;2.33;1.30;;;13.70;68.80;;;;;;5096678;28;20107;-68
2022/06/21 03:02:07;;;;;;;4.32;1.83;;;13.70;68.90;;;;;;5082909;28;20022;-68
2022/06/21 03:04:55;;;;;;;3.58;1.60;;;13.60;69.00;;;;;;5089093;28;20040;-68
2022/06/21 03:07:42;;;;;;;2.60;1.60;;;13.40;69.50;;;;;;5090246;28;20028;-67
2022/06/21 03:10:16;;;;;;;3.33;1.73;;;13.40;69.60;;;;;;5083084;28;20727;-67
2022/06/21 03:12:42;;;;;;;2.92;1.50;;;13.40;69.50;;;;;;5094049;28;20024;-67
2022/06/21 03:15:11;;;;;;;3.33;1.50;;;13.40;69.40;;;;;;5096250;28;20054;-67
2022/06/21 03:17:41;;;;;;;2.30;1.40;;;13.40;69.50;;;;;;5092532;28;20100;-67
2022/06/21 03:20:14;;;;;;;2.80;1.40;;;13.40;69.50;;;;;;5091741;28;20026;-66
2022/06/21 03:22:41;;;;;;;2.45;1.38;;;13.40;69.50;;;;;;5092511;28;20107;-67
2022/06/21 03:25:15;;;;;;;2.80;1.50;;;13.40;69.40;;;;;;5092993;28;20027;-65
2022/06/21 03:27:49;;;;;;;2.03;1.50;;;13.40;69.40;;;;;;5090769;28;20023;-67
2022/06/21 03:30:17;;;;;;;3.33;1.50;;;13.40;69.40;;;;;;5089840;28;20024;-67
2022/06/21 03:32:44;;;;;;;2.67;1.70;;;13.40;69.40;;;;;;5092316;28;20052;-67
2022/06/21 03:35:11;;;;;;;2.30;1.63;;;13.40;69.50;;;;;;5091380;28;20025;-66
2022/06/21 03:37:38;;;;;;;3.30;1.48;;;13.40;69.50;;;;;;5095836;28;20035;-67
2022/06/21 03:42:52;;;;;;;4.32;1.80;;;13.40;69.60;;;;;;5106098;28;20558;-68
2022/06/21 03:45:31;;;;;;;3.38;1.60;;;13.50;69.70;;;;;;5100458;28;20502;-68
2022/06/21 03:48:21;;;;;;;2.20;1.80;;;13.40;69.70;;;;;;5090427;28;20051;-67
2022/06/21 03:50:54;;;;;;;2.75;1.40;;;13.50;69.90;;;;;;5089237;28;20458;-68
2022/06/21 03:53:51;;;;;;;4.57;1.70;;;13.50;69.90;;;;;;5090156;28;20124;-68
2022/06/21 03:56:21;;;;;;;3.13;1.60;;;13.50;70.10;;;;;;5095090;28;20032;-68
2022/06/21 03:59:07;;;;;;;3.97;1.45;;;13.50;70.10;;;;;;5082688;28;20028;-68
2022/06/21 04:02:10;;;;;;;3.05;1.63;;;13.50;70.20;;;;;;5100900;28;20028;-67
2022/06/21 04:04:55;;;;;;;4.35;1.80;;;13.60;70.20;;;;;;5091295;28;20546;-68
2022/06/21 04:07:21;;;;;;;3.42;1.70;;;13.60;70.10;;;;;;5088259;28;20032;-68
2022/06/21 04:10:12;;;;;;;3.05;1.50;;;13.60;70.00;;;;;;5095634;28;20030;-69
2022/06/21 04:12:41;;;;;;;2.63;1.40;;;13.60;70.10;;;;;;5091545;28;20024;-69
2022/06/21 04:15:17;;;;;;;1.90;1.42;;;13.60;70.20;;;;;;5083340;28;20044;-66
2022/06/21 04:17:56;;;;;;;2.10;1.50;;;13.50;70.40;;;;;;5093896;28;20020;-68
2022/06/21 04:20:30;;;;;;;2.72;1.23;;;13.60;70.60;;;;;;5103510;28;20055;-67
2022/06/21 04:23:09;;;;;;;5.15;1.70;;;13.60;70.60;;;;;;5091610;28;20024;-68
2022/06/21 04:26:06;;;;;;;3.75;1.60;;;13.60;70.60;;;;;;5091218;28;20059;-66
2022/06/21 04:28:55;;;;;;;3.13;1.70;;;13.60;70.60;;;;;;5084267;28;20203;-66
2022/06/21 04:31:40;;;;;;;2.65;1.35;;;13.60;70.80;;;;;;5090463;28;20016;-67
2022/06/21 04:34:19;;;;;;;2.25;1.33;;;13.60;71.20;;;;;;5088235;28;20017;-66
2022/06/21 04:36:51;;;;;;;3.30;1.40;;;13.50;71.70;;;;;;5080071;28;20024;-66
2022/06/21 04:39:26;;;;;;;3.53;1.40;;;13.60;72.00;;;;;;5090862;28;20965;-67
2022/06/21 04:42:10;;;;;;;3.60;1.30;;;13.60;72.00;;;;;;5082642;28;20679;-67
2022/06/21 04:44:49;;;;;;;2.42;1.20;;;13.70;72.00;;;;;;5094589;28;20035;-67
2022/06/21 04:47:31;;;;;;;2.70;1.25;;;13.80;71.90;;;;;;5081535;28;20032;-66
2022/06/21 04:50:15;;;;;;;5.18;1.50;;;13.90;72.00;;;;;;5085015;28;20020;-67
2022/06/21 04:52:47;;;;;;;3.35;1.30;;;14.00;72.30;;;;;;5085470;28;20034;-67
2022/06/21 04:55:15;;;;;;;2.25;1.00;;;14.60;71.30;;;;;;5084238;28;20118;-66
2022/06/21 04:57:41;;;;;;;3.05;1.00;;;15.20;69.80;;;;;;5086743;28;20029;-67
2022/06/21 05:00:15;;;;;;;5.38;1.30;;;15.60;68.40;;;;;;5089078;28;20022;-66
2022/06/21 05:02:50;;;;;;;2.63;1.20;;;16.10;67.60;;;;;;5084178;28;20059;-67
2022/06/21 05:05:20;;;;;;;3.53;1.45;;;16.20;67.10;;;;;;5079728;28;20024;-67
2022/06/21 05:07:57;;;;;;;6.18;1.92;;;16.40;66.90;;;;;;5082194;28;20085;-68
2022/06/21 05:10:27;;;;;;;3.28;1.60;;;16.50;66.70;;;;;;5095610;28;20112;-68
2022/06/21 05:12:55;;;;;;;4.93;1.70;;;16.50;66.60;;;;;;5086148;28;20028;-67
2022/06/21 05:15:25;;;;;;;5.18;1.55;;;16.60;66.50;;;;;;5096860;28;20027;-68
2022/06/21 05:17:58;;;;;;;2.55;1.27;;;16.70;66.30;;;;;;5088485;28;20031;-68
2022/06/21 05:20:31;;;;;;;5.78;1.60;;;16.80;66.20;;;;;;5091080;28;20039;-68
2022/06/21 05:22:58;;;;;;;;;;;17.20;65.70;;;;;;5088542;28;20385;-67
2022/06/21 05:25:32;;;;;;;7.28;1.52;;;17.30;65.30;;;;;;5085536;28;19908;-67
2022/06/21 05:28:16;;;;;;;4.60;1.70;;;17.30;65.40;;;;;;5092889;28;20085;-67
2022/06/21 05:30:46;;;;;;;3.33;1.30;;;17.40;65.20;;;;;;5086568;28;20028;-68
2022/06/21 05:33:24;;;;;;;3.03;1.30;;;17.40;65.40;;;;;;5084729;28;20024;-68
2022/06/21 05:35:50;;;;;;;3.08;1.23;;;17.40;65.40;;;;;;5087497;28;20044;-68
2022/06/21 05:38:23;;;;;;;3.80;1.40;;;17.50;65.50;;;;;;5084170;27;20031;-68
2022/06/21 05:41:00;;;;;;;3.70;1.35;;;17.50;65.30;;;;;;5092638;28;20437;-68
2022/06/21 05:43:39;;;;;;;3.35;1.27;;;17.50;65.70;;;;;;5083772;28;20020;-67
2022/06/21 05:46:19;;;;;;;4.13;1.45;;;17.60;65.50;;;;;;5086134;28;20063;-67
2022/06/21 05:48:45;;;;;;;3.88;1.25;;;17.70;65.20;;;;;;5081568;28;20044;-69
2022/06/21 05:51:27;;;;;;;5.15;1.73;;;17.90;65.00;;;;;;5090677;28;20059;-66
2022/06/21 05:53:58;;;;;;;3.47;1.58;;;17.90;63.90;;;;;;5082089;28;20027;-67
2022/06/21 05:56:26;;;;;;;3.83;1.30;;;17.60;64.20;;;;;;5089582;28;20061;-66
2022/06/21 05:58:59;;;;;;;3.92;1.25;;;17.40;64.70;;;;;;5092772;28;20039;-67
2022/06/21 06:01:31;;;;;;;4.53;1.40;;;17.40;65.10;;;;;;5083362;28;20020;-68
2022/06/21 06:04:01;;;;;;;4.50;1.50;;;17.50;65.00;;;;;;5083249;28;20058;-69
2022/06/21 06:06:34;;;;;;;4.43;1.40;;;17.30;64.90;;;;;;5085139;28;20035;-67
2022/06/21 06:09:22;;;;;;;2.47;1.40;;;17.30;65.30;;;;;;5077237;28;20017;-67
2022/06/21 06:11:58;;;;;;;3.22;1.42;;;17.40;65.10;;;;;;5091790;28;20064;-66
2022/06/21 06:14:45;;;;;;;5.32;1.40;;;17.50;65.00;;;;;;5084629;28;20042;-66
2022/06/21 06:17:26;;;;;;;4.57;1.55;;;17.50;64.90;;;;;;5086630;28;20049;-65
2022/06/21 06:20:06;;;;;;;4.00;1.43;;;17.40;64.60;;;;;;5086782;28;20984;-68
2022/06/21 06:23:00;;;;;;;2.20;1.13;;;17.60;65.00;;;;;;5079583;28;20024;-68
2022/06/21 06:25:35;;;;;;;3.17;1.40;;;17.90;64.50;;;;;;5093617;28;20485;-67
2022/06/21 06:28:04;;;;;;;3.83;1.30;;;18.00;63.40;;;;;;5079425;28;20035;-64
2022/06/21 06:30:44;;;;;;;3.33;1.40;;;18.00;63.50;;;;;;5073328;28;20034;-66
2022/06/21 06:33:24;;;;;;;3.00;1.38;;;17.90;63.20;;;;;;5087557;28;20028;-68
2022/06/21 06:35:51;;;;;;;4.97;1.60;;;17.90;63.30;;;;;;5088259;28;20021;-68
2022/06/21 06:38:18;;;;;;;3.60;1.42;;;18.10;63.10;;;;;;5082704;28;20020;-67
2022/06/21 06:40:50;;;;;;;4.00;1.50;;;18.10;63.00;;;;;;5081310;28;20058;-66
2022/06/21 06:43:19;;;;;;;;;;;18.10;62.50;;;;;;5081283;28;20078;-66
2022/06/21 06:45:45;;;;;;;2.33;1.00;;;18.30;62.60;;;;;;5081684;28;19930;-67
2022/06/21 06:48:16;;;;;;;5.03;1.52;;;18.50;62.30;;;;;;5074951;28;20503;-66
2022/06/21 06:50:48;;;;;;;4.10;1.50;;;18.60;61.40;;;;;;5079815;28;20041;-65
2022/06/21 06:53:22;;;;;;;3.78;1.60;;;18.70;61.30;;;;;;5080242;28;20028;-66
2022/06/21 06:55:52;;;;;;;2.28;1.25;;;18.60;60.90;;;;;;5082529;28;20118;-67
2022/06/21 06:58:28;;;;;;;4.35;1.10;;;18.70;60.70;;;;;;5078293;28;20016;-68
2022/06/21 07:01:05;;;;;;;3.58;1.25;;;18.90;60.70;;;;;;5084530;28;20026;-67
2022/06/21 07:03:36;;;;;;;2.65;1.23;;;19.20;60.10;;;;;;5078263;28;20036;-67
2022/06/21 07:06:14;;;;;;;3.35;1.48;;;19.30;59.60;;;;;;5087843;28;20028;-66
2022/06/21 07:09:04;;;;;;;3.20;1.30;;;19.30;59.20;;;;;;5084446;28;20031;-65
2022/06/21 07:12:11;;;;;;;4.00;1.40;;;19.50;59.30;;;;;;5092233;28;20063;-67
2022/06/21 07:14:37;;;;;;;3.80;1.38;;;19.90;58.90;;;;;;5083427;28;20038;-67
2022/06/21 07:17:42;;;;;;;2.83;1.38;;;19.90;58.50;;;;;;5090385;28;20016;-66
2022/06/21 07:20:19;;;;;;;3.45;1.60;;;19.90;58.00;;;;;;5091355;28;20026;-67
2022/06/21 07:22:45;;;;;;;3.97;1.30;;;19.90;57.90;;;;;;5097711;28;20470;-66
2022/06/21 07:25:29;;;;;;;4.68;1.30;;;20.00;57.70;;;;;;5093922;28;20025;-68
2022/06/21 07:28:04;;;;;;;3.03;1.60;;;19.90;57.50;;;;;;5077678;28;20024;-67
2022/06/21 07:30:38;;;;;;;3.38;1.40;;;19.90;57.60;;;;;;5080395;28;20031;-67
2022/06/21 07:33:10;;;;;;;2.50;1.30;;;19.90;57.50;;;;;;5080693;28;20020;-66
2022/06/21 07:35:43;;;;;;;3.13;1.40;;;20.00;57.10;;;;;;5089003;28;20028;-65
2022/06/21 07:38:21;;;;;;;5.10;2.03;;;20.10;56.70;;;;;;5088782;28;20055;-66
2022/06/21 07:40:53;;;;;;;5.68;2.20;;;19.80;56.70;;;;;;5083042;28;20016;-67
2022/06/21 07:43:25;;;;;;;4.90;1.75;;;19.60;57.20;;;;;;5089669;28;20032;-68
2022/06/21 07:46:11;;;;;;;;;;;19.80;57.50;;;;;;5087465;28;20031;-67
2022/06/21 07:48:54;;;;;;;3.05;1.38;;;19.90;57.30;;;;;;5092315;28;20205;-67
2022/06/21 07:51:30;;;;;;;3.38;1.50;;;20.10;57.30;;;;;;5092128;28;20020;-67
2022/06/21 07:54:14;;;;;;;4.28;1.60;;;20.30;56.40;;;;;;5084034;28;20012;-67
2022/06/21 07:56:44;;;;;;;4.20;1.55;;;20.50;55.90;;;;;;5089037;28;20036;-66
2022/06/21 07:59:15;;;;;;;4.28;1.80;;;20.70;55.50;;;;;;5082203;28;20024;-67
2022/06/21 08:07:46;;;;;;;5.10;2.00;;;20.70;55.10;;;;;;5078018;28;20401;-67
2022/06/21 08:10:17;;;;;;;5.75;2.20;;;20.70;54.50;;;;;;5084786;28;20031;-67
2022/06/21 08:12:43;;;;;;;4.20;1.70;;;20.60;54.30;;;;;;5075724;28;20052;-68
2022/06/21 08:15:09;;;;;;;4.00;1.30;;;20.50;54.60;;;;;;5085803;28;20109;-67
2022/06/21 08:17:53;;;;;;;2.55;1.38;;;20.50;54.80;;;;;;5085008;28;20012;-67
2022/06/21 08:20:31;;;;;;;5.50;1.80;;;20.70;54.40;;;;;;5086810;28;20035;-67
2022/06/21 08:23:08;;;;;;;3.92;1.60;;;20.80;53.50;;;;;;5083404;28;20012;-67
2022/06/21 08:25:42;;;;;;;5.32;1.30;;;20.60;52.90;;;;;;5085609;28;20020;-67
2022/06/21 08:28:17;;;;;;;2.72;1.38;;;20.70;53.30;;;;;;5082372;28;20016;-67
2022/06/21 08:30:55;;;;;;;3.58;1.40;;;20.80;53.00;;;;;;5089812;28;20043;-66
2022/06/21 08:33:39;;;;;;;4.65;1.75;;;20.90;53.00;;;;;;5080968;28;20487;-67
2022/06/21 08:36:12;;;;;;;4.35;1.50;;;21.20;52.80;;;;;;5086538;28;20428;-66
2022/06/21 08:38:43;;;;;;;6.05;1.95;;;21.20;52.40;;;;;;5086689;28;20024;-68
2022/06/21 08:41:55;;;;;;;4.43;1.70;;;21.00;52.50;;;;;;5095769;28;20061;-67
2022/06/21 08:44:38;;;;;;;4.82;1.60;;;21.00;52.90;;;;;;5044724;28;20085;-68
2022/06/21 08:47:06;;;;;;;3.35;1.38;;;21.20;53.10;;;;;;5094354;28;20182;-67
2022/06/21 08:49:41;;;;;;;2.78;1.30;;;21.40;52.40;;;;;;5078320;28;20383;-67
2022/06/21 08:52:06;;;;;;;3.70;1.60;;;21.50;51.70;;;;;;5081978;28;20089;-68
2022/06/21 08:55:02;;;;;;;3.63;1.48;;;21.30;50.90;;;;;;5086542;28;20021;-66
2022/06/21 08:57:35;;;;;;;2.63;1.13;;;21.20;51.40;;;;;;5092379;28;20035;-68
2022/06/21 09:00:06;;;;;;;4.55;1.50;;;21.30;51.30;;;;;;5083340;28;20016;-68
2022/06/21 09:02:43;;;;;;;3.45;1.40;;;21.30;50.70;;;;;;5096681;28;20108;-66
2022/06/21 09:05:47;;;;;;;3.85;1.75;;;21.30;50.80;;;;;;5081781;28;20024;-67
2022/06/21 09:08:37;;;;;;;3.55;1.60;;;21.20;50.30;;;;;;5076875;28;20060;-67
2022/06/21 09:11:24;;;;;;;4.55;2.10;;;21.10;50.50;;;;;;5081334;28;20032;-67
2022/06/21 09:14:18;;;;;;;2.50;1.20;;;21.00;50.30;;;;;;5090726;28;20099;-67
2022/06/21 09:16:59;;;;;;;4.35;1.60;;;21.10;50.50;;;;;;5083111;28;20122;-67
2022/06/21 09:19:54;;;;;;;2.15;1.20;;;21.40;50.40;;;;;;5088514;28;20028;-67
2022/06/21 09:22:40;;;;;;;2.58;1.15;;;21.70;50.10;;;;;;5084971;28;20077;-68
2022/06/21 09:25:39;;;;;;;3.83;1.55;;;22.00;50.00;;;;;;5081454;28;20042;-68
2022/06/21 09:28:10;;;;;;;1.98;1.17;;;22.20;49.60;;;;;;5081851;28;20047;-67
2022/06/21 09:31:07;;;;;;;1.75;1.00;;;22.40;49.40;;;;;;5098672;28;20055;-67
2022/06/21 09:33:59;;;;;;;2.45;1.20;;;22.60;49.10;;;;;;5064694;28;20073;-68
2022/06/21 09:36:51;;;;;;;3.33;1.30;;;22.80;48.60;;;;;;5088236;28;20032;-69
2022/06/21 09:39:38;;;;;;;3.38;1.73;;;22.80;47.20;;;;;;5089070;28;20448;-66
2022/06/21 09:42:14;;;;;;;1.88;0.95;;;22.60;46.90;;;;;;5107062;28;20034;-67
2022/06/21 09:45:08;;;;;;;4.95;1.63;;;22.50;46.90;;;;;;5079868;28;20054;-66
2022/06/21 09:47:51;;;;;;;1.85;0.98;;;22.40;46.50;;;;;;5085020;28;20056;-68
2022/06/21 09:50:40;;;;;;;1.92;0.80;;;22.40;46.80;;;;;;5080245;28;20030;-68
2022/06/21 09:53:29;;;;;;;1.75;1.00;;;22.60;47.00;;;;;;5089927;28;20479;-68
2022/06/21 09:56:02;;;;;;;2.15;0.98;;;22.70;46.00;;;;;;5086475;28;20416;-67
2022/06/21 09:58:49;;;;;;;2.45;0.80;;;22.70;45.50;;;;;;5083818;28;20638;-68
2022/06/21 10:01:32;;;;;;;1.77;0.70;;;22.80;45.40;;;;;;5084879;28;20085;-68
2022/06/21 10:04:17;;;;;;;2.25;0.85;;;23.00;45.30;;;;;;5077890;28;20390;-66
2022/06/21 10:07:06;;;;;;;1.92;0.82;;;23.10;45.10;;;;;;5081125;28;20059;-66
2022/06/21 10:09:53;;;;;;;1.95;0.80;;;22.90;44.60;;;;;;5075263;28;20032;-65
2022/06/21 10:12:35;;;;;;;0.73;0.60;;;23.00;44.20;;;;;;5085968;28;20039;-67
2022/06/21 10:15:35;;;;;;;1.17;0.60;;;23.10;44.50;;;;;;5080157;28;20446;-69
2022/06/21 10:18:06;;;;;;;1.88;0.70;;;23.20;44.60;;;;;;5080407;28;20857;-67
2022/06/21 10:20:50;;;;;;;1.42;0.70;;;23.20;44.00;;;;;;5083369;28;20551;-67
2022/06/21 10:23:37;;;;;;;1.77;1.10;;;23.10;43.10;;;;;;5089537;28;20064;-68
2022/06/21 10:26:31;;;;;;;2.15;0.88;;;22.90;43.10;;;;;;5091228;28;20034;-68
2022/06/21 10:29:18;;;;;;;1.10;0.60;;;23.10;43.30;;;;;;5060103;28;20040;-68
2022/06/21 10:32:06;;;;;;;3.42;0.80;;;23.30;42.90;;;;;;5096052;28;20038;-68
2022/06/21 10:34:32;;;;;;;3.22;0.80;;;23.50;42.60;;;;;;5091469;28;20070;-65
2022/06/21 10:37:06;;;;;;;1.08;0.70;;;23.40;41.90;;;;;;5088423;28;20024;-68
2022/06/21 10:40:06;;;;;;;1.63;1.00;;;23.20;42.10;;;;;;5086907;28;20498;-66
2022/06/21 10:42:56;;;;;;;4.57;1.00;;;23.10;42.50;;;;;;5086329;28;20034;-67
2022/06/21 10:45:40;;;;;;;1.50;0.80;;;22.90;43.00;;;;;;5089570;28;20043;-67
2022/06/21 10:48:28;;;;;;;0.88;0.63;;;23.10;43.50;;;;;;5083402;28;20024;-67
2022/06/21 10:51:19;;;;;;;2.10;0.77;;;23.30;43.40;;;;;;5097269;28;20084;-69
2022/06/21 10:54:03;;;;;;;1.77;0.90;;;23.60;43.10;;;;;;5075652;28;20554;-66
2022/06/21 11:02:59;;;;;;;2.13;0.75;;;24.10;42.30;;;;;;5081850;28;20035;-68
2022/06/21 11:05:32;;;;;;;0.88;0.60;;;23.90;42.30;;;;;;5085351;28;20024;-66
2022/06/21 11:08:30;;;;;;;2.05;0.90;;;24.00;42.10;;;;;;5080240;28;20024;-66
2022/06/21 11:11:06;;;;;;;1.33;0.68;;;24.20;42.00;;;;;;5081199;28;20530;-67
2022/06/21 11:13:47;;;;;;;3.05;0.90;;;24.60;41.70;;;;;;5079565;28;20116;-67
2022/06/21 11:16:29;;;;;;;1.67;0.65;;;24.30;40.90;;;;;;5084978;28;20106;-67
2022/06/21 11:19:00;;;;;;;;;;;24.10;41.30;;;;;;5091038;28;20017;-67
2022/06/21 11:21:58;;;;;;;1.55;0.70;;;23.80;40.80;;;;;;5089215;28;20377;-66
2022/06/21 11:24:36;;;;;;;2.33;0.70;;;23.60;41.60;;;;;;5083363;28;20040;-67
2022/06/21 11:27:09;;;;;;;1.35;0.70;;;23.80;41.60;;;;;;5081442;28;20028;-69
2022/06/21 11:29:48;;;;;;;1.70;1.08;;;23.90;41.40;;;;;;5078326;28;20028;-68
2022/06/21 11:32:40;;;;;;;0.80;0.50;;;24.10;41.40;;;;;;5088188;28;20058;-68
2022/06/21 11:35:32;;;;;;;1.15;0.68;;;24.50;41.10;;;;;;5085530;28;20090;-68
2022/06/21 11:38:23;;;;;;;1.98;0.80;;;24.60;40.40;;;;;;5082864;28;20413;-68
2022/06/21 11:42:04;;;;;;;0.65;0.50;;;24.40;40.00;;;;;;5082906;28;20020;-67
2022/06/21 11:44:12;;;;;;;1.20;0.60;;;24.60;40.30;;;;;;5084728;28;20673;-68
2022/06/21 11:46:50;;;;;;;1.20;0.60;;;24.90;40.20;;;;;;5083557;28;20281;-66
2022/06/21 11:49:36;;;;;;;1.77;0.70;;;25.10;39.80;;;;;;5077132;28;20024;-66
2022/06/21 11:52:13;;;;;;;1.98;0.55;;;25.40;39.70;;;;;;5085422;28;20070;-67
2022/06/21 11:54:49;;;;;;;1.60;0.73;;;25.70;38.90;;;;;;5084900;28;20088;-67
2022/06/21 11:57:35;;;;;;;0.60;0.50;;;25.90;38.20;;;;;;5088964;28;20024;-67
2022/06/21 12:00:26;;;;;;;2.05;0.70;;;26.10;38.10;;;;;;5083525;28;20062;-67
2022/06/21 12:02:58;;;;;;;1.15;0.57;;;26.30;38.30;;;;;;5080331;28;20023;-68
2022/06/21 12:05:42;;;;;;;1.17;0.50;;;26.30;37.20;;;;;;5073204;28;20181;-68
2022/06/21 12:08:27;;;;;;;1.85;0.70;;;26.20;37.00;;;;;;5073533;28;20024;-68
2022/06/21 12:11:11;;;;;;;1.08;0.60;;;26.10;36.80;;;;;;5071728;28;20036;-68
2022/06/21 12:13:56;;;;;;;1.35;0.40;;;25.90;36.70;;;;;;5074203;28;20111;-68
2022/06/21 12:16:32;;;;;;;0.85;0.43;;;26.10;36.70;;;;;;5081370;28;20020;-67
2022/06/21 12:19:03;;;;;;;2.83;0.73;;;26.10;36.10;;;;;;5078756;28;20073;-68
2022/06/21 12:21:35;;;;;;;0.60;0.50;;;25.70;35.80;;;;;;5077548;28;20030;-67
2022/06/21 12:24:11;;;;;;;0.88;0.45;;;25.50;36.60;;;;;;5084544;28;20064;-67
2022/06/21 12:26:41;;;;;;;1.20;0.70;;;25.50;36.60;;;;;;5070837;28;20016;-67
2022/06/21 12:29:13;;;;;;;1.17;0.50;;;25.20;35.90;;;;;;5081598;28;20103;-68
2022/06/21 12:31:44;;;;;;;0.88;0.40;;;25.10;36.50;;;;;;5082003;28;20540;-66
2022/06/21 12:34:29;;;;;;;1.10;0.30;;;25.10;36.80;;;;;;5079000;28;20458;-66
2022/06/21 12:37:08;;;;;;;1.25;0.65;;;25.20;37.10;;;;;;5087502;28;20020;-67
2022/06/21 12:39:53;;;;;;;1.38;0.63;;;25.20;36.60;;;;;;5070188;28;20040;-66
2022/06/21 12:42:25;;;;;;;0.60;0.60;;;25.10;36.60;;;;;;5070114;28;20032;-67
2022/06/21 12:45:28;;;;;;;1.05;0.50;;;25.20;36.90;;;;;;5071454;28;20222;-67
2022/06/21 12:48:23;;;;;;;1.05;0.60;;;25.10;36.60;;;;;;5074243;28;20121;-67
2022/06/21 12:51:11;;;;;;;0.82;0.50;;;25.20;36.80;;;;;;5078607;28;20116;-66
2022/06/21 12:54:13;;;;;;;1.77;0.70;;;25.30;37.00;;;;;;5072670;28;20047;-66
2022/06/21 12:56:44;;;;;;;2.33;0.80;;;25.10;36.40;;;;;;5083083;28;20147;-66
2022/06/21 12:59:43;;;;;;;1.55;1.00;;;25.30;36.90;;;;;;5072146;28;20032;-67
2022/06/21 13:02:26;;;;;;;1.10;0.60;;;25.50;37.20;;;;;;5083700;28;20027;-67
2022/06/21 13:04:54;;;;;;;2.70;1.15;;;25.80;37.10;;;;;;5076774;28;20088;-67
2022/06/21 13:07:35;;;;;;;2.05;0.70;;;25.80;36.50;;;;;;5076246;28;20032;-68
2022/06/21 13:10:22;;;;;;;1.35;0.60;;;25.70;36.60;;;;;;5082490;28;20031;-68
2022/06/21 13:13:05;;;;;;;2.92;0.57;;;25.50;36.50;;;;;;5070872;28;20082;-67
2022/06/21 13:15:40;;;;;;;1.42;0.73;;;25.40;36.40;;;;;;5074617;28;20119;-66
2022/06/21 13:18:14;;;;;;;2.25;0.60;;;25.20;36.20;;;;;;5081515;28;20415;-67
2022/06/21 13:20:56;;;;;;;1.10;0.60;;;24.90;36.70;;;;;;5091143;28;20677;-67
2022/06/21 13:23:35;;;;;;;1.77;0.70;;;25.10;37.30;;;;;;5083173;28;20025;-68
2022/06/21 13:26:42;;;;;;;1.10;0.63;;;25.00;36.90;;;;;;5075962;28;20024;-68
2022/06/21 13:29:42;;;;;;;1.38;0.60;;;25.10;37.40;;;;;;5085467;28;20034;-65
2022/06/21 13:32:23;;;;;;;1.05;0.52;;;25.10;37.50;;;;;;5092418;28;20032;-68
2022/06/21 13:35:04;;;;;;;2.10;0.70;;;25.30;37.20;;;;;;5073473;28;20095;-67
2022/06/21 13:37:40;;;;;;;0.95;0.60;;;25.10;37.40;;;;;;5082732;28;20060;-66
2022/06/21 13:40:33;;;;;;;1.00;0.50;;;25.10;37.80;;;;;;5083484;28;20058;-68
2022/06/21 13:43:10;;;;;;;1.42;0.70;;;25.30;37.50;;;;;;5069948;28;20032;-67
2022/06/21 13:45:49;;;;;;;0.50;0.35;;;25.10;37.60;;;;;;5070509;28;20375;-68
2022/06/21 13:48:21;;;;;;;2.40;0.70;;;25.20;37.80;;;;;;5090497;28;20031;-68
2022/06/21 13:51:15;;;;;;;1.85;0.75;;;25.10;37.70;;;;;;5102128;28;20514;-67
2022/06/21 13:54:12;;;;;;;1.13;0.73;;;25.00;37.80;;;;;;5093398;28;20024;-68
2022/06/21 13:57:00;;;;;;;1.00;0.60;;;24.90;38.00;;;;;;5062116;28;20043;-68
2022/06/21 13:59:38;;;;;;;1.88;0.70;;;25.00;38.30;;;;;;5088262;28;20481;-67